Time;durP1;ratioP1;P1;durP2;ratioP2;P2;SDS_P1;SDS_P2;PMS_P1;PMS_P2;Temp;Humidity;BMP_temperature;BMP_pressure;BME280_temperature;BME280_humidity;BME280_pressure;Samples;Min_cycle;Max_cycle;Signal;HPM_P1;HPM_P2
2022/05/31 00:01:13;;;;;;;5.87;3.70;;;;;;;15.54;100.00;99637.67;1737829;82;21027;-69
2022/05/31 00:03:40;;;;;;;8.28;4.25;;;;;;;15.56;100.00;99632.67;1727075;81;21590;-69
2022/05/31 00:06:07;;;;;;;6.58;3.95;;;;;;;15.55;100.00;99630.25;1746326;82;21003;-69
2022/05/31 00:08:33;;;;;;;7.80;4.10;;;;;;;15.47;100.00;99623.52;1742862;81;21110;-68
2022/05/31 00:11:00;;;;;;;;;;;;;;;15.44;100.00;99627.66;1738280;81;21511;-68
2022/05/31 00:13:27;;;;;;;5.62;3.72;;;;;;;15.48;100.00;99632.56;1744026;81;20103;-68
2022/05/31 00:15:54;;;;;;;6.30;3.95;;;;;;;15.47;100.00;99635.86;1744870;82;21011;-67
2022/05/31 00:18:20;;;;;;;;;;;;;;;15.49;100.00;99631.45;1741898;80;21121;-68
2022/05/31 00:20:47;;;;;;;6.45;4.00;;;;;;;15.49;100.00;99636.39;1730064;81;20109;-69
2022/05/31 00:23:13;;;;;;;8.73;3.70;;;;;;;15.44;100.00;99643.34;1732195;81;21653;-68
2022/05/31 00:25:39;;;;;;;;;;;;;;;15.43;100.00;99641.15;1705508;82;21004;-69
2022/05/31 00:28:06;;;;;;;7.20;3.70;;;;;;;15.44;100.00;99637.85;1707496;82;20111;-68
2022/05/31 00:30:33;;;;;;;11.00;3.47;;;;;;;15.40;100.00;99643.69;1712093;82;20984;-69
2022/05/31 00:33:01;;;;;;;8.65;4.35;;;;;;;15.39;100.00;99639.31;1717468;82;21697;-69
2022/05/31 00:35:31;;;;;;;5.62;3.83;;;;;;;15.33;100.00;99639.98;1713290;82;21007;-69
2022/05/31 00:37:58;;;;;;;7.12;4.15;;;;;;;15.30;100.00;99638.42;1710216;82;21052;-69
2022/05/31 00:40:27;;;;;;;5.62;3.35;;;;;;;15.32;100.00;99639.73;1704951;82;21034;-69
2022/05/31 00:42:59;;;;;;;6.08;3.70;;;;;;;15.36;100.00;99642.67;1711718;82;21032;-69
2022/05/31 00:45:41;;;;;;;5.87;3.58;;;;;;;15.39;100.00;99644.80;1709347;82;21028;-69
2022/05/31 00:48:16;;;;;;;5.22;3.80;;;;;;;15.41;100.00;99643.37;1700750;82;21095;-69
2022/05/31 00:51:03;;;;;;;5.95;3.77;;;;;;;15.47;100.00;99648.77;1703828;82;20988;-69
2022/05/31 00:53:43;;;;;;;6.17;3.65;;;;;;;15.51;100.00;99648.44;1711016;82;21205;-69
2022/05/31 00:56:18;;;;;;;5.40;3.62;;;;;;;15.51;100.00;99640.21;1710490;82;21048;-69
2022/05/31 00:58:48;;;;;;;6.70;4.10;;;;;;;15.49;100.00;99641.06;1713373;82;21036;-69
2022/05/31 01:01:16;;;;;;;6.12;3.95;;;;;;;15.45;100.00;99637.53;1704636;82;21062;-70
2022/05/31 01:09:10;;;;;;;7.95;4.78;;;;;;;15.38;100.00;99634.94;1703801;82;21087;-67
2022/05/31 01:11:42;;;;;;;8.70;5.20;;;;;;;15.45;100.00;99647.69;1703367;83;21540;-68
2022/05/31 01:14:14;;;;;;;6.22;4.37;;;;;;;15.51;100.00;99651.19;1707843;82;21437;-68
2022/05/31 01:17:06;;;;;;;6.80;4.40;;;;;;;15.53;100.00;99656.61;1702705;82;20964;-68
2022/05/31 01:19:59;;;;;;;7.58;4.72;;;;;;;15.54;100.00;99658.24;1704127;82;21091;-68
2022/05/31 01:22:39;;;;;;;7.08;4.60;;;;;;;15.59;100.00;99659.48;1711055;82;21569;-69
2022/05/31 01:25:27;;;;;;;7.83;5.55;;;;;;;15.62;100.00;99664.95;1728588;81;21093;-69
2022/05/31 01:28:19;;;;;;;7.45;5.20;;;;;;;15.61;100.00;99655.08;1741240;81;21094;-69
2022/05/31 01:31:09;;;;;;;9.88;5.17;;;;;;;15.61;100.00;99651.78;1742938;81;21788;-68
2022/05/31 01:33:56;;;;;;;7.65;5.15;;;;;;;15.68;100.00;99648.62;1733424;81;21126;-68
2022/05/31 01:36:27;;;;;;;8.53;5.50;;;;;;;15.71;100.00;99641.14;1726039;81;21539;-69
2022/05/31 01:39:04;;;;;;;9.33;5.47;;;;;;;15.71;100.00;99641.14;1748883;81;21241;-70
2022/05/31 01:41:53;;;;;;;8.00;5.30;;;;;;;15.66;100.00;99639.89;1742217;81;21074;-69
2022/05/31 01:44:21;;;;;;;8.05;5.08;;;;;;;15.59;100.00;99644.40;1737628;81;21161;-69
2022/05/31 01:46:47;;;;;;;7.92;5.15;;;;;;;15.56;100.00;99659.29;1738459;81;21003;-70
2022/05/31 01:49:14;;;;;;;9.78;5.75;;;;;;;15.52;100.00;99643.22;1707290;81;21597;-68
2022/05/31 01:51:41;;;;;;;10.30;5.15;;;;;;;15.45;100.00;99638.91;1747312;81;21066;-69
2022/05/31 01:54:09;;;;;;;7.22;5.30;;;;;;;15.44;100.00;99630.41;1742156;80;21601;-69
2022/05/31 01:56:36;;;;;;;8.28;5.50;;;;;;;15.42;100.00;99629.91;1730573;81;21011;-68
2022/05/31 01:59:03;;;;;;;7.83;5.33;;;;;;;15.40;100.00;99629.42;1748710;81;21111;-68
2022/05/31 02:01:31;;;;;;;7.80;5.12;;;;;;;15.37;100.00;99636.86;1745923;81;21007;-69
2022/05/31 02:03:58;;;;;;;13.62;8.43;;;;;;;15.36;100.00;99634.45;1734735;81;21546;-68
2022/05/31 02:06:28;;;;;;;14.00;8.68;;;;;;;15.35;100.00;99650.09;1743933;81;21027;-69
2022/05/31 02:08:55;;;;;;;12.37;8.28;;;;;;;15.38;100.00;99648.66;1735093;81;21074;-68
2022/05/31 02:11:23;;;;;;;11.08;7.80;;;;;;;15.41;100.00;99653.52;1727666;81;21059;-68
2022/05/31 02:13:50;;;;;;;9.25;6.75;;;;;;;15.43;100.00;99656.79;1735953;81;21110;-68
2022/05/31 02:16:18;;;;;;;8.25;6.05;;;;;;;15.37;100.00;99669.78;1735320;81;21015;-69
2022/05/31 02:21:48;;;;;;;10.68;5.70;;;;;;;15.43;100.00;99666.39;1722172;81;20158;-68
2022/05/31 02:24:16;;;;;;;8.18;6.33;;;;;;;15.38;100.00;99668.67;1738547;81;21419;-68
2022/05/31 02:26:44;;;;;;;8.05;5.40;;;;;;;15.38;100.00;99665.11;1745240;82;21027;-68
2022/05/31 02:29:13;;;;;;;9.10;5.78;;;;;;;15.39;100.00;99659.89;1735098;81;21584;-68
2022/05/31 02:31:40;;;;;;;9.43;5.60;;;;;;;15.33;100.00;99655.08;1738754;81;21051;-67
2022/05/31 02:34:08;;;;;;;8.93;5.33;;;;;;;15.38;100.00;99656.88;1742160;81;21657;-68
2022/05/31 02:36:35;;;;;;;8.33;5.85;;;;;;;15.36;100.00;99663.24;1747953;82;21078;-67
2022/05/31 02:39:02;;;;;;;;;;;;;;;15.34;100.00;99670.39;1735625;81;21122;-68
2022/05/31 02:41:31;;;;;;;11.70;5.62;;;;;;;15.31;100.00;99672.93;1732276;82;20462;-68
2022/05/31 02:43:58;;;;;;;9.73;6.33;;;;;;;15.26;100.00;99677.16;1745950;81;21664;-67
2022/05/31 02:46:24;;;;;;;9.15;6.87;;;;;;;15.30;100.00;99676.23;1746980;82;21055;-68
2022/05/31 02:48:51;;;;;;;7.97;6.35;;;;;;;15.38;100.00;99681.56;1743326;81;21070;-68
2022/05/31 02:51:17;;;;;;;;;;;;;;;15.45;100.00;99679.23;1745900;81;21030;-68
2022/05/31 02:53:43;;;;;;;8.78;5.78;;;;;;;15.53;100.00;99675.00;1732753;82;20388;-68
2022/05/31 02:56:11;;;;;;;9.53;6.60;;;;;;;15.55;100.00;99685.12;1748455;81;21482;-68
2022/05/31 02:58:52;;;;;;;10.85;7.50;;;;;;;15.59;100.00;99682.03;1672024;82;21114;-68
2022/05/31 03:01:38;;;;;;;8.63;6.17;;;;;;;15.62;100.00;99677.30;1734435;82;21542;-68
2022/05/31 03:04:23;;;;;;;8.03;5.47;;;;;;;15.61;100.00;99674.29;1743577;81;21139;-68
2022/05/31 03:06:51;;;;;;;9.65;5.60;;;;;;;15.66;100.00;99676.36;1717876;81;20991;-68
2022/05/31 03:09:19;;;;;;;9.08;5.72;;;;;;;15.68;100.00;99670.58;1726337;81;21072;-68
2022/05/31 03:12:05;;;;;;;7.62;5.90;;;;;;;15.70;100.00;99676.00;1741479;82;21059;-68
2022/05/31 03:14:55;;;;;;;9.70;5.70;;;;;;;15.73;100.00;99682.23;1744249;81;21543;-68
2022/05/31 03:17:30;;;;;;;8.88;5.55;;;;;;;15.71;100.00;99686.42;1741692;81;21079;-68
2022/05/31 03:20:14;;;;;;;8.07;5.27;;;;;;;15.71;100.00;99691.35;1746609;82;21036;-67
2022/05/31 03:22:48;;;;;;;11.60;6.50;;;;;;;15.75;100.00;99692.92;1728839;82;21096;-67
2022/05/31 03:25:21;;;;;;;9.35;7.37;;;;;;;15.76;100.00;99690.44;1737655;81;21102;-69
2022/05/31 03:27:47;;;;;;;12.30;7.53;;;;;;;15.82;100.00;99689.20;1736171;81;21484;-69
2022/05/31 03:30:14;;;;;;;12.75;7.95;;;;;;;15.88;100.00;99686.59;1724775;81;21060;-69
2022/05/31 03:32:41;;;;;;;13.50;8.08;;;;;;;15.87;100.00;99692.64;1714346;81;21074;-68
2022/05/31 03:35:08;;;;;;;10.32;7.08;;;;;;;15.93;100.00;99691.98;1729448;81;21026;-68
2022/05/31 03:37:35;;;;;;;10.72;6.80;;;;;;;15.96;100.00;99689.99;1732668;81;21459;-68
2022/05/31 03:40:04;;;;;;;10.32;6.80;;;;;;;15.97;100.00;99688.88;1736506;81;20982;-69
2022/05/31 03:42:31;;;;;;;14.43;6.03;;;;;;;16.00;100.00;99696.50;1741300;81;21053;-68
2022/05/31 03:44:58;;;;;;;;;;;;;;;16.00;100.00;99699.25;1741229;81;21038;-68
2022/05/31 03:47:41;;;;;;;11.10;6.70;;;;;;;16.02;100.00;99704.41;1735402;80;20127;-69
2022/05/31 03:50:25;;;;;;;9.98;6.83;;;;;;;15.98;100.00;99713.82;1737448;81;21045;-68
2022/05/31 03:52:52;;;;;;;10.75;6.60;;;;;;;16.04;100.00;99711.80;1743868;81;21062;-68
2022/05/31 03:55:18;;;;;;;;;;;;;;;16.03;100.00;99718.40;1748997;81;20991;-68
2022/05/31 03:57:48;;;;;;;8.40;6.40;;;;;;;16.05;100.00;99713.43;1739059;81;20109;-68
2022/05/31 04:00:17;;;;;;;9.20;6.37;;;;;;;16.04;100.00;99725.52;1753741;81;21530;-69
2022/05/31 04:02:51;;;;;;;9.33;6.22;;;;;;;16.05;100.00;99737.55;1724748;81;21083;-69
2022/05/31 04:05:18;;;;;;;10.13;5.37;;;;;;;16.09;100.00;99744.06;1736706;81;21023;-69
2022/05/31 04:07:46;;;;;;;9.18;5.80;;;;;;;16.11;100.00;99737.72;1739615;81;21224;-66
2022/05/31 04:10:13;;;;;;;6.10;5.05;;;;;;;16.15;100.00;99743.41;1739858;81;21046;-66
2022/05/31 04:12:42;;;;;;;7.58;5.33;;;;;;;16.09;100.00;99745.44;1758604;81;21572;-66
2022/05/31 04:15:10;;;;;;;7.87;5.45;;;;;;;16.08;100.00;99752.62;1725644;81;21079;-66
2022/05/31 04:17:38;;;;;;;8.30;6.10;;;;;;;16.11;100.00;99749.26;1746359;81;21126;-66
2022/05/31 04:20:07;;;;;;;10.43;7.22;;;;;;;16.05;100.00;99760.11;1727869;81;21118;-67
2022/05/31 04:22:33;;;;;;;9.78;6.83;;;;;;;15.97;100.00;99753.41;1723480;80;21052;-67
2022/05/31 04:25:02;;;;;;;7.92;6.50;;;;;;;15.93;100.00;99756.50;1736700;81;21569;-67
2022/05/31 04:27:36;;;;;;;9.23;7.00;;;;;;;15.88;100.00;99760.71;1740523;81;21038;-67
2022/05/31 04:30:20;;;;;;;7.12;6.10;;;;;;;15.86;100.00;99764.34;1689281;83;20993;-66
2022/05/31 04:33:05;;;;;;;9.25;6.15;;;;;;;15.83;100.00;99770.44;1728727;81;21042;-67
2022/05/31 04:35:36;;;;;;;7.37;5.95;;;;;;;15.83;100.00;99773.19;1725261;81;21035;-66
2022/05/31 04:38:02;;;;;;;7.47;5.70;;;;;;;15.78;100.00;99780.95;1745503;81;21058;-67
2022/05/31 04:40:43;;;;;;;7.85;5.67;;;;;;;15.78;100.00;99776.02;1732528;82;21648;-67
2022/05/31 04:43:15;;;;;;;9.98;6.12;;;;;;;15.79;100.00;99774.91;1735272;81;21027;-67
2022/05/31 04:45:43;;;;;;;6.95;5.58;;;;;;;15.77;100.00;99778.50;1685423;81;21039;-68
2022/05/31 04:48:26;;;;;;;7.17;5.58;;;;;;;15.64;100.00;99771.08;1741481;81;21404;-67
2022/05/31 04:50:53;;;;;;;6.87;6.10;;;;;;;15.54;100.00;99778.96;1734397;82;21042;-67
2022/05/31 04:53:20;;;;;;;9.98;5.87;;;;;;;15.53;100.00;99783.36;1740221;81;21082;-67
2022/05/31 04:56:09;;;;;;;8.70;5.83;;;;;;;15.52;100.00;99788.62;1716912;81;21117;-66
2022/05/31 04:58:35;;;;;;;9.93;6.17;;;;;;;15.50;100.00;99801.25;1740223;81;21605;-66
2022/05/31 05:01:02;;;;;;;9.40;7.03;;;;;;;15.52;100.00;99796.84;1730604;81;20992;-65
2022/05/31 05:03:29;;;;;;;6.75;6.05;;;;;;;15.56;100.00;99797.84;1714326;82;21050;-65
2022/05/31 05:06:00;;;;;;;12.85;6.78;;;;;;;15.54;100.00;99787.75;1739310;81;21039;-66
2022/05/31 05:08:28;;;;;;;9.18;7.37;;;;;;;15.47;100.00;99790.86;1735853;82;21035;-66
2022/05/31 05:10:55;;;;;;;9.40;7.17;;;;;;;15.48;100.00;99787.56;1732864;81;21479;-66
2022/05/31 05:13:30;;;;;;;9.20;7.15;;;;;;;15.46;100.00;99789.22;1736153;82;21016;-65
2022/05/31 05:16:05;;;;;;;12.07;6.97;;;;;;;15.52;100.00;99788.03;1662587;84;21059;-64
2022/05/31 05:18:34;;;;;;;7.78;6.30;;;;;;;15.55;100.00;99783.89;1710656;83;21098;-65
2022/05/31 05:21:02;;;;;;;9.40;6.30;;;;;;;15.57;100.00;99785.20;1731205;81;21063;-64
2022/05/31 05:23:30;;;;;;;6.62;5.65;;;;;;;15.57;100.00;99778.34;1739514;82;21087;-64
2022/05/31 05:25:57;;;;;;;10.40;6.03;;;;;;;15.56;100.00;99784.12;1715454;82;21050;-64
2022/05/31 05:31:30;;;;;;;7.78;6.28;;;;;;;15.57;100.00;99789.88;1699814;84;21055;-62
2022/05/31 05:34:15;;;;;;;8.93;5.58;;;;;;;15.60;100.00;99795.57;1698788;82;21046;-63
2022/05/31 05:39:34;;;;;;;7.85;5.80;;;;;;;15.79;100.00;99821.56;1811615;78;22611;-61
2022/05/31 05:42:18;;;;;;;7.72;5.92;;;;;;;15.80;100.00;99822.62;1661250;84;21056;-62
2022/05/31 05:44:44;;;;;;;9.18;6.03;;;;;;;15.91;100.00;99816.38;1717451;82;21506;-62
2022/05/31 05:47:15;;;;;;;7.30;6.10;;;;;;;16.01;100.00;99823.61;1759330;81;21007;-62
2022/05/31 05:49:41;;;;;;;6.83;5.75;;;;;;;16.05;100.00;99819.14;1749521;80;20940;-62
2022/05/31 05:52:16;;;;;;;8.98;5.50;;;;;;;16.06;100.00;99819.38;1717807;81;20970;-62
2022/05/31 05:55:01;;;;;;;8.48;5.78;;;;;;;16.10;100.00;99823.95;1730717;83;21007;-62
2022/05/31 05:57:33;;;;;;;6.90;6.20;;;;;;;16.11;100.00;99818.73;1711668;81;21050;-62
2022/05/31 06:00:19;;;;;;;6.28;5.35;;;;;;;16.08;100.00;99830.88;1762040;80;20971;-62
2022/05/31 06:03:06;;;;;;;6.78;5.42;;;;;;;16.00;100.00;99833.78;1754849;81;21142;-62
2022/05/31 06:05:48;;;;;;;8.10;5.80;;;;;;;16.06;100.00;99842.72;1752963;81;21046;-62
2022/05/31 06:08:31;;;;;;;8.33;5.60;;;;;;;16.11;100.00;99848.94;1762210;80;21566;-63
2022/05/31 06:11:17;;;;;;;7.92;5.70;;;;;;;16.14;100.00;99853.81;1728887;82;21080;-63
2022/05/31 06:13:55;;;;;;;8.73;5.53;;;;;;;16.10;100.00;99861.03;1751803;81;21114;-64
2022/05/31 06:16:27;;;;;;;6.35;5.17;;;;;;;16.01;100.00;99866.17;1754789;82;21090;-63
2022/05/31 06:19:08;;;;;;;6.10;4.90;;;;;;;15.94;100.00;99870.11;1758360;80;21043;-64
2022/05/31 06:21:35;;;;;;;6.12;5.45;;;;;;;15.93;100.00;99877.30;1740303;82;21051;-64
2022/05/31 06:24:04;;;;;;;11.95;6.15;;;;;;;15.90;100.00;99875.98;1740723;81;21078;-64
2022/05/31 06:26:31;;;;;;;8.60;6.10;;;;;;;15.92;100.00;99875.66;1745062;80;20980;-63
2022/05/31 06:29:00;;;;;;;11.30;7.00;;;;;;;15.91;100.00;99869.91;1763527;80;21134;-63
2022/05/31 06:31:27;;;;;;;9.48;7.08;;;;;;;15.86;100.00;99867.27;1756616;80;21058;-64
2022/05/31 06:33:53;;;;;;;;;;;;;;;15.89;100.00;99867.48;1757184;82;21137;-64
2022/05/31 06:36:21;;;;;;;11.48;8.95;;;;;;;15.94;100.00;99867.95;1757563;80;20161;-63
2022/05/31 06:38:48;;;;;;;11.97;9.30;;;;;;;15.97;100.00;99865.15;1773161;80;21570;-63
2022/05/31 06:41:14;;;;;;;;;;;;;;;15.99;100.00;99867.84;1749111;80;21451;-63
2022/05/31 06:43:56;;;;;;;13.05;8.78;;;;;;;16.02;100.00;99867.22;1744587;80;20427;-63
2022/05/31 06:46:41;;;;;;;10.75;7.12;;;;;;;16.08;100.00;99858.34;1748574;81;21005;-63
2022/05/31 06:49:27;;;;;;;9.55;7.78;;;;;;;16.13;100.00;99861.79;1758475;81;21608;-64
2022/05/31 06:58:19;;;;;;;10.28;7.42;;;;;;;16.11;100.00;99877.77;1741949;81;21036;-64
2022/05/31 07:00:47;;;;;;;9.63;7.42;;;;;;;16.15;100.00;99896.64;1708513;84;21387;-62
2022/05/31 07:03:15;;;;;;;10.55;7.62;;;;;;;16.20;100.00;99882.80;1712118;83;21102;-62
2022/05/31 07:05:41;;;;;;;15.32;8.10;;;;;;;16.16;100.00;99891.39;1727223;81;21034;-62
2022/05/31 07:08:08;;;;;;;10.72;7.95;;;;;;;16.13;100.00;99896.12;1739949;81;21043;-62
2022/05/31 07:10:53;;;;;;;11.10;7.85;;;;;;;16.19;100.00;99889.98;1724965;82;21490;-64
2022/05/31 07:13:37;;;;;;;9.25;6.35;;;;;;;16.26;100.00;99898.62;1749508;82;21051;-63
2022/05/31 07:16:23;;;;;;;8.33;6.28;;;;;;;16.27;100.00;99890.06;1754103;81;21048;-68
2022/05/31 07:18:58;;;;;;;9.13;6.20;;;;;;;16.20;100.00;99897.90;1748959;80;21059;-67
2022/05/31 07:21:26;;;;;;;8.48;5.33;;;;;;;16.13;100.00;99894.74;1753510;80;21011;-68
2022/05/31 07:23:53;;;;;;;8.45;5.53;;;;;;;16.18;100.00;99900.70;1754998;80;21011;-68
2022/05/31 07:26:20;;;;;;;10.45;5.45;;;;;;;16.18;100.00;99905.64;1759566;80;21011;-68
2022/05/31 07:28:47;;;;;;;6.83;5.20;;;;;;;16.16;100.00;99904.30;1733839;80;21022;-67
2022/05/31 07:31:14;;;;;;;6.20;5.08;;;;;;;16.24;100.00;99910.46;1750747;80;20984;-68
2022/05/31 07:33:49;;;;;;;10.43;4.75;;;;;;;16.28;100.00;99908.74;1714999;82;21514;-67
2022/05/31 07:36:15;;;;;;;5.83;4.60;;;;;;;16.27;100.00;99914.79;1708992;82;21489;-67
2022/05/31 07:38:46;;;;;;;7.20;4.83;;;;;;;16.27;100.00;99913.97;1744113;81;21078;-66
2022/05/31 07:41:13;;;;;;;5.70;4.97;;;;;;;16.25;100.00;99906.61;1763343;80;21340;-62
2022/05/31 07:43:39;;;;;;;7.62;5.45;;;;;;;16.31;100.00;99905.38;1738548;81;21628;-64
2022/05/31 07:46:10;;;;;;;9.95;4.65;;;;;;;16.29;100.00;99915.88;1748651;81;21482;-62
2022/05/31 07:48:37;;;;;;;5.22;4.30;;;;;;;16.28;100.00;99921.10;1749480;81;21078;-63
2022/05/31 07:51:06;;;;;;;6.17;3.75;;;;;;;16.32;100.00;99924.87;1755391;80;21453;-61
2022/05/31 07:53:51;;;;;;;5.15;3.60;;;;;;;16.37;100.00;99917.33;1684612;84;21055;-63
2022/05/31 07:56:36;;;;;;;5.35;3.90;;;;;;;16.20;100.00;99909.44;1729217;81;21056;-62
2022/05/31 07:59:07;;;;;;;4.35;3.40;;;;;;;16.07;100.00;99912.45;1717100;81;21152;-61
2022/05/31 08:01:45;;;;;;;4.25;3.50;;;;;;;16.12;100.00;99912.33;1691748;83;21042;-61
2022/05/31 08:04:14;;;;;;;4.10;3.05;;;;;;;16.08;100.00;99909.96;1778407;80;21121;-61
2022/05/31 08:06:40;;;;;;;5.78;2.62;;;;;;;15.95;100.00;99914.86;1739644;81;21066;-62
2022/05/31 08:09:08;;;;;;;3.30;2.58;;;;;;;15.79;100.00;99928.61;1759146;80;21490;-64
2022/05/31 08:11:35;;;;;;;2.67;2.40;;;;;;;15.61;100.00;99927.55;1770361;80;21273;-63
2022/05/31 08:14:03;;;;;;;4.17;2.30;;;;;;;15.50;100.00;99935.69;1759973;81;21103;-64
2022/05/31 08:16:30;;;;;;;5.05;2.15;;;;;;;15.38;100.00;99949.00;1753130;80;20982;-64
2022/05/31 08:18:56;;;;;;;;;;;;;;;15.21;100.00;99955.02;1750940;80;21041;-63
2022/05/31 08:21:29;;;;;;;3.58;1.80;;;;;;;15.08;100.00;99966.74;1754867;80;20113;-63
2022/05/31 08:24:00;;;;;;;4.25;2.05;;;;;;;14.89;100.00;99971.37;1694134;83;21559;-63
2022/05/31 08:26:26;;;;;;;3.10;2.15;;;;;;;14.80;100.00;99978.09;1689812;84;21007;-63
2022/05/31 08:28:53;;;;;;;3.75;2.50;;;;;;;14.74;100.00;99983.90;1687179;85;21656;-65
2022/05/31 08:31:31;;;;;;;3.33;2.10;;;;;;;14.61;100.00;99985.98;1708718;83;21098;-65
2022/05/31 08:33:58;;;;;;;3.08;1.92;;;;;;;14.47;100.00;99998.75;1710443;82;21614;-63
2022/05/31 08:36:25;;;;;;;2.60;1.50;;;;;;;14.34;100.00;99997.53;1711672;83;21506;-63
2022/05/31 08:38:54;;;;;;;3.02;2.17;;;;;;;14.19;100.00;99992.99;1704565;82;21709;-62
2022/05/31 08:41:28;;;;;;;3.72;1.98;;;;;;;14.15;100.00;99987.83;1707121;83;21600;-65
2022/05/31 08:44:09;;;;;;;2.95;2.00;;;;;;;14.09;100.00;99993.09;1698993;84;21616;-65
2022/05/31 08:46:53;;;;;;;3.05;2.02;;;;;;;14.01;100.00;100005.20;1706380;82;21033;-63
2022/05/31 08:52:48;;;;;;;4.17;2.02;;;;;;;13.83;100.00;99997.16;1690072;84;21066;-64
2022/05/31 08:58:30;;;;;;;4.20;2.37;;;;;;;13.67;100.00;99980.06;1734830;81;21036;-64
2022/05/31 09:00:57;;;;;;;3.12;1.82;;;;;;;13.68;100.00;99974.02;1741718;82;20972;-64
2022/05/31 09:03:46;;;;;;;4.45;2.60;;;;;;;13.54;100.00;99974.41;1744671;81;21402;-63
2022/05/31 09:06:27;;;;;;;6.95;2.98;;;;;;;13.46;100.00;99971.75;1742960;81;20972;-63
2022/05/31 09:09:11;;;;;;;6.87;3.17;;;;;;;13.33;100.00;99971.83;1727453;80;21039;-63
2022/05/31 09:11:58;;;;;;;4.90;3.12;;;;;;;13.25;100.00;99983.94;1745603;80;21007;-64
2022/05/31 09:14:47;;;;;;;6.05;2.92;;;;;;;13.23;100.00;99995.68;1738841;80;21086;-62
2022/05/31 09:17:23;;;;;;;7.40;2.87;;;;;;;13.19;100.00;99998.16;1723747;82;20983;-63
2022/05/31 09:20:06;;;;;;;5.05;2.40;;;;;;;13.22;100.00;99996.77;1710398;84;21023;-64
2022/05/31 09:22:32;;;;;;;5.62;3.00;;;;;;;13.27;100.00;99981.72;1729598;82;21059;-62
2022/05/31 09:24:58;;;;;;;5.03;2.75;;;;;;;13.31;100.00;99968.58;1725240;81;21009;-62
2022/05/31 09:27:46;;;;;;;3.22;2.20;;;;;;;13.33;100.00;99968.27;1742333;80;21020;-62
2022/05/31 09:30:28;;;;;;;5.37;2.30;;;;;;;13.30;100.00;99969.66;1737756;81;20976;-62
2022/05/31 09:33:14;;;;;;;5.05;2.22;;;;;;;13.27;100.00;99959.30;1737356;82;21086;-62
2022/05/31 09:36:04;;;;;;;6.53;2.27;;;;;;;13.28;100.00;99960.12;1708760;83;21008;-62
2022/05/31 09:38:59;;;;;;;3.45;2.10;;;;;;;13.27;100.00;99968.88;1713329;83;21620;-61
2022/05/31 09:41:37;;;;;;;5.60;2.30;;;;;;;13.26;100.00;99979.53;1709568;84;21490;-64
2022/05/31 09:44:27;;;;;;;3.12;2.00;;;;;;;13.36;100.00;99984.92;1739452;80;21031;-64
2022/05/31 09:47:11;;;;;;;4.50;2.00;;;;;;;13.52;100.00;100005.34;1708679;82;21031;-63
2022/05/31 09:49:44;;;;;;;3.45;1.95;;;;;;;13.62;100.00;100010.73;1718071;80;21011;-64
2022/05/31 09:52:30;;;;;;;3.80;1.90;;;;;;;13.69;100.00;100008.48;1746491;81;21857;-63
2022/05/31 09:58:15;;;;;;;3.85;2.47;;;;;;;13.99;100.00;100006.06;1695525;81;21123;-63
2022/05/31 10:01:24;;;;;;;3.77;2.17;;;;;;;14.21;100.00;100005.00;1716480;82;20963;-63
2022/05/31 10:03:55;;;;;;;4.67;2.20;;;;;;;14.48;100.00;100014.09;1737273;81;21522;-63
2022/05/31 10:06:30;;;;;;;5.92;2.50;;;;;;;14.69;100.00;100016.86;1719552;82;21412;-62
2022/05/31 10:08:56;;;;;;;3.40;2.27;;;;;;;14.87;100.00;100006.50;1740615;82;21102;-62
2022/05/31 10:11:29;;;;;;;;;;;;;;;14.97;100.00;100005.00;1742626;81;20951;-62
2022/05/31 10:14:06;;;;;;;3.30;2.17;;;;;;;15.02;100.00;100000.80;1744724;81;20109;-62
2022/05/31 10:16:35;;;;;;;4.80;2.40;;;;;;;15.18;100.00;100007.72;1711144;83;21451;-61
2022/05/31 10:19:06;;;;;;;3.80;2.17;;;;;;;15.27;100.00;99996.34;1710807;82;21613;-62
2022/05/31 10:21:42;;;;;;;6.22;2.45;;;;;;;15.50;100.00;99992.48;1737834;82;20960;-63
2022/05/31 10:24:19;;;;;;;7.83;2.65;;;;;;;15.76;100.00;99987.68;1745113;81;21042;-62
2022/05/31 10:27:12;;;;;;;6.53;2.87;;;;;;;15.86;100.00;99988.06;1747796;81;20971;-63
2022/05/31 10:29:54;;;;;;;4.67;3.08;;;;;;;15.91;100.00;99999.75;1762451;81;20995;-63
2022/05/31 10:32:48;;;;;;;7.80;3.30;;;;;;;16.00;100.00;99994.95;1747555;81;21507;-63
2022/05/31 10:35:24;;;;;;;3.65;2.40;;;;;;;16.08;100.00;100001.95;1746760;82;21534;-62
2022/05/31 10:38:11;;;;;;;5.83;3.40;;;;;;;16.35;100.00;100003.37;1740577;81;21054;-62
2022/05/31 10:48:56;;;;;;;6.58;3.55;;;;;;;16.27;100.00;99975.77;1718184;80;21034;-62
2022/05/31 10:51:57;;;;;;;5.33;3.65;;;;;;;16.26;100.00;99974.17;1737799;82;21466;-62
2022/05/31 10:54:52;;;;;;;4.20;2.95;;;;;;;16.14;100.00;99971.91;1739928;82;21055;-62
2022/05/31 10:57:44;;;;;;;5.20;3.37;;;;;;;16.17;100.00;99971.30;1721599;81;20996;-62
2022/05/31 11:00:25;;;;;;;5.95;3.50;;;;;;;16.33;100.00;99974.00;1711249;83;21030;-62
2022/05/31 11:03:17;;;;;;;6.90;3.65;;;;;;;16.43;100.00;99973.01;1710934;84;21071;-62
2022/05/31 11:06:13;;;;;;;5.28;3.77;;;;;;;16.56;100.00;99968.09;1710801;84;21052;-65
2022/05/31 11:12:06;;;;;;;8.60;3.72;;;;;;;16.59;100.00;99979.03;1739640;82;21506;-63
2022/05/31 11:14:53;;;;;;;4.62;3.98;;;;;;;16.67;100.00;99977.77;1717299;83;20991;-63
2022/05/31 11:18:00;;;;;;;6.22;4.10;;;;;;;16.92;100.00;99979.17;1735411;81;21022;-63
2022/05/31 11:20:37;;;;;;;6.50;4.05;;;;;;;17.01;100.00;99978.69;1717331;82;21015;-64
2022/05/31 11:23:18;;;;;;;8.65;4.00;;;;;;;17.18;100.00;99982.98;1766287;80;21012;-64
2022/05/31 11:25:56;;;;;;;4.33;3.58;;;;;;;17.35;100.00;99976.84;1767210;81;21078;-64
2022/05/31 11:28:51;;;;;;;5.33;3.75;;;;;;;17.47;100.00;99971.59;1740950;81;21094;-64
2022/05/31 11:31:53;;;;;;;6.58;3.77;;;;;;;17.51;100.00;99971.78;1734622;80;21028;-63
2022/05/31 11:34:51;;;;;;;7.92;3.40;;;;;;;17.71;100.00;99979.59;1726039;80;21082;-64
2022/05/31 11:37:32;;;;;;;5.67;3.60;;;;;;;17.69;100.00;99964.75;1728956;82;21470;-64
2022/05/31 11:40:14;;;;;;;5.10;3.50;;;;;;;17.71;100.00;99969.38;1737297;81;21109;-63
2022/05/31 11:43:24;;;;;;;5.97;3.58;;;;;;;17.76;100.00;99965.13;1733550;81;21015;-62
2022/05/31 11:46:33;;;;;;;4.62;3.47;;;;;;;17.70;100.00;99962.81;1736893;80;20964;-63
2022/05/31 11:49:04;;;;;;;6.00;3.60;;;;;;;17.61;100.00;99967.43;1718482;80;21066;-62
2022/05/31 11:51:53;;;;;;;6.17;3.40;;;;;;;17.67;100.00;99961.52;1742374;80;20935;-62
2022/05/31 11:58:12;;;;;;;6.70;2.83;;;;;;;17.92;100.00;99965.56;1742815;80;21522;-63
2022/05/31 12:01:00;;;;;;;5.83;3.15;;;;;;;18.01;100.00;99969.17;1747082;80;21412;-61
2022/05/31 12:04:11;;;;;;;6.17;2.67;;;;;;;18.10;100.00;99962.34;1738306;81;21086;-63
2022/05/31 12:07:02;;;;;;;6.35;2.77;;;;;;;18.11;100.00;99954.31;1747056;80;21011;-66
2022/05/31 12:09:39;;;;;;;3.95;2.47;;;;;;;18.16;100.00;99955.56;1744966;80;21123;-66
2022/05/31 12:12:12;;;;;;;3.72;2.85;;;;;;;18.30;100.00;99966.74;1743320;80;20971;-67
2022/05/31 12:14:45;;;;;;;3.35;2.50;;;;;;;18.44;100.00;99956.99;1747769;80;20987;-66
2022/05/31 12:17:12;;;;;;;5.25;2.72;;;;;;;18.54;100.00;99961.43;1742818;80;20971;-66
2022/05/31 12:20:00;;;;;;;3.75;2.17;;;;;;;18.59;100.00;99959.36;1749243;80;21032;-66
2022/05/31 12:22:36;;;;;;;3.30;2.47;;;;;;;18.69;100.00;99952.17;1739284;80;21032;-66
2022/05/31 12:25:13;;;;;;;5.22;2.77;;;;;;;18.72;100.00;99947.39;1733603;81;20992;-66
2022/05/31 12:27:44;;;;;;;5.85;2.67;;;;;;;18.70;100.00;99950.23;1734541;80;21095;-66
2022/05/31 12:30:27;;;;;;;4.58;2.35;;;;;;;18.75;100.00;99956.95;1742819;80;21078;-67
2022/05/31 12:32:54;;;;;;;3.50;2.33;;;;;;;18.70;100.00;99941.95;1745341;80;21027;-66
2022/05/31 12:35:35;;;;;;;4.70;2.22;;;;;;;18.67;100.00;99947.52;1741234;81;20992;-66
2022/05/31 12:38:10;;;;;;;4.85;2.52;;;;;;;18.65;100.00;99941.53;1731786;80;21051;-64
2022/05/31 12:40:42;;;;;;;3.22;2.33;;;;;;;18.65;100.00;99936.58;1750511;81;21526;-66
2022/05/31 12:43:16;;;;;;;8.18;2.58;;;;;;;18.66;100.00;99938.20;1752228;80;21121;-66
2022/05/31 12:45:44;;;;;;;5.10;2.42;;;;;;;18.72;100.00;99941.05;1766498;80;21030;-66
2022/05/31 12:48:20;;;;;;;6.08;2.52;;;;;;;18.68;100.00;99938.13;1759090;80;21625;-66